Time;durP1;ratioP1;P1;durP2;ratioP2;P2;SDS_P1;SDS_P2;PMS_P1;PMS_P2;Temp;Humidity;BMP_temperature;BMP_pressure;BME280_temperature;BME280_humidity;BME280_pressure;Samples;Min_cycle;Max_cycle;Signal;HPM_P1;HPM_P2
2023/08/29 00:00:35;;;;;;;;;2.50;2.50;;;;;18.77;61.89;100966.91;5074149;28;45381;-70
2023/08/29 00:03:03;;;;;;;;;2.25;2.25;;;;;18.78;61.90;100971.38;5074482;27;56456;-70
2023/08/29 00:05:29;;;;;;;;;2.75;2.75;;;;;18.76;61.86;100964.31;5060155;28;45756;-70
2023/08/29 00:07:55;;;;;;;;;1.00;1.00;;;;;18.80;62.12;100976.69;5060124;28;45432;-70
2023/08/29 00:10:20;;;;;;;;;2.00;2.00;;;;;18.80;61.89;100972.13;5075832;28;45524;-70
2023/08/29 00:12:45;;;;;;;;;2.75;2.75;;;;;18.80;62.23;100977.53;5075138;27;45935;-70
2023/08/29 00:15:11;;;;;;;;;3.75;1.75;;;;;18.75;61.85;100963.44;5058662;28;46925;-70
2023/08/29 00:17:36;;;;;;;;;2.50;2.50;;;;;18.71;62.26;100956.50;5060835;28;45325;-70
2023/08/29 00:20:02;;;;;;;;;1.75;1.75;;;;;18.70;62.46;100962.88;5060532;28;45417;-70
2023/08/29 00:22:28;;;;;;;;;3.25;1.75;;;;;18.73;62.46;100964.50;5055813;28;45568;-70
2023/08/29 00:24:53;;;;;;;;;1.00;1.00;;;;;18.74;62.47;100967.09;5058498;28;48221;-70
2023/08/29 00:27:19;;;;;;;;;1.75;1.75;;;;;18.75;62.18;100976.97;5074012;28;55825;-70
2023/08/29 00:29:45;;;;;;;;;4.75;3.00;;;;;18.77;62.30;100976.88;5058206;28;45444;-70
2023/08/29 00:32:10;;;;;;;;;3.00;2.00;;;;;18.77;62.46;100972.31;5045602;28;45583;-70
2023/08/29 00:34:36;;;;;;;;;3.75;2.50;;;;;18.79;62.80;100981.19;5058255;28;45527;-70
2023/08/29 00:37:01;;;;;;;;;1.00;1.00;;;;;18.75;62.42;100982.38;5060445;28;45413;-70
2023/08/29 00:39:27;;;;;;;;;3.00;3.00;;;;;18.65;62.58;100959.59;5059814;28;45499;-70
2023/08/29 00:41:52;;;;;;;;;4.00;4.00;;;;;18.64;62.66;100957.84;5060623;28;45582;-70
2023/08/29 00:44:17;;;;;;;;;2.50;2.50;;;;;18.69;62.83;100970.13;5057446;28;45969;-70
2023/08/29 00:46:44;;;;;;;;;3.25;2.25;;;;;18.62;63.05;100954.38;5057994;28;45362;-70
2023/08/29 00:49:12;;;;;;;;;2.75;2.75;;;;;18.70;63.27;100966.44;5060166;28;45416;-70
2023/08/29 00:51:40;;;;;;;;;4.00;4.00;;;;;18.61;62.94;100948.09;5074291;28;46067;-70
2023/08/29 00:54:06;;;;;;;;;2.25;2.25;;;;;18.69;63.01;100958.41;5060948;28;47184;-70
2023/08/29 00:56:32;;;;;;;;;2.50;2.50;;;;;18.72;63.14;100960.06;5082575;27;45398;-70
2023/08/29 00:58:59;;;;;;;;;2.25;1.50;;;;;18.67;63.41;100961.22;5055035;28;45437;-70
2023/08/29 01:01:24;;;;;;;;;4.00;4.00;;;;;18.68;63.08;100959.41;5059060;28;45419;-70
2023/08/29 01:03:50;;;;;;;;;3.50;3.50;;;;;18.62;63.23;100954.38;5059571;28;45315;-70
2023/08/29 01:06:15;;;;;;;;;1.75;1.75;;;;;18.66;63.20;100958.59;5057155;28;45461;-70
2023/08/29 01:08:43;;;;;;;;;3.50;2.75;;;;;18.56;63.42;100949.34;5059173;28;45739;-70
2023/08/29 01:11:46;;;;;;;;;2.00;2.00;;;;;18.59;63.82;100968.06;5059689;28;45481;-70
2023/08/29 01:14:32;;;;;;;;;3.00;3.00;;;;;18.57;63.80;100968.16;5057834;28;45433;-70
2023/08/29 01:17:31;;;;;;;;;3.75;3.50;;;;;18.50;63.83;100954.16;5057685;28;45277;-70
2023/08/29 01:19:58;;;;;;;;;2.50;2.50;;;;;18.52;64.25;100956.78;5058304;28;45487;-70
2023/08/29 01:22:35;;;;;;;;;4.00;4.00;;;;;18.54;63.88;100959.38;5057557;28;45546;-70
2023/08/29 01:25:19;;;;;;;;;4.25;4.25;;;;;18.51;63.90;100955.06;5055419;28;47486;-70
2023/08/29 01:27:46;;;;;;;;;1.50;1.50;;;;;18.47;64.29;100946.25;5054148;28;45680;-70
2023/08/29 01:30:13;;;;;;;;;2.50;2.50;;;;;18.46;64.44;100940.94;5059620;28;45563;-70
2023/08/29 01:32:39;;;;;;;;;2.00;2.00;;;;;18.46;64.51;100946.34;5058828;28;45321;-70
2023/08/29 01:35:06;;;;;;;;;2.50;2.50;;;;;18.45;64.34;100950.03;5058858;28;45444;-70
2023/08/29 01:37:32;;;;;;;;;3.00;3.00;;;;;18.46;64.44;100951.75;5058869;28;45601;-70
2023/08/29 01:39:57;;;;;;;;;3.75;3.75;;;;;18.42;64.32;100947.50;5059302;28;45364;-70
2023/08/29 01:42:22;;;;;;;;;3.50;3.50;;;;;18.38;64.56;100949.53;5058626;28;50222;-70
2023/08/29 01:44:47;;;;;;;;;3.00;3.00;;;;;18.39;65.27;100955.78;5058805;28;61000;-70
2023/08/29 01:47:13;;;;;;;;;3.50;2.50;;;;;18.37;64.99;100953.19;5057436;28;53410;-70
2023/08/29 01:49:39;;;;;;;;;2.00;2.00;;;;;18.33;65.21;100943.53;5059084;28;45468;-70
2023/08/29 01:52:04;;;;;;;;;3.25;3.25;;;;;18.32;64.95;100948.06;5056970;28;45413;-70
2023/08/29 01:54:30;;;;;;;;;2.25;2.25;;;;;18.25;65.25;100937.75;5057904;28;45495;-70
2023/08/29 01:56:57;;;;;;;;;2.75;2.75;;;;;18.33;65.27;100955.22;5074564;28;46069;-70
2023/08/29 01:59:23;;;;;;;;;2.75;2.75;;;;;18.26;65.15;100940.34;5059039;28;45370;-70
2023/08/29 02:01:49;;;;;;;;;1.50;0.50;;;;;18.30;65.52;100943.72;5039012;28;45591;-70
2023/08/29 02:04:14;;;;;;;;;4.00;3.75;;;;;18.26;65.39;100937.66;5058964;28;46795;-70
2023/08/29 02:06:40;;;;;;;;;1.50;1.50;;;;;18.32;65.54;100952.59;5058212;28;50495;-70
2023/08/29 02:09:05;;;;;;;;;4.25;3.00;;;;;18.30;65.74;100951.84;5058582;28;49024;-70
2023/08/29 02:11:30;;;;;;;;;4.25;3.50;;;;;18.21;65.85;100942.47;5074492;28;45470;-70
2023/08/29 02:13:56;;;;;;;;;3.25;3.25;;;;;18.20;65.42;100942.56;5057875;28;48220;-70
2023/08/29 02:16:21;;;;;;;;;3.00;3.00;;;;;18.22;66.06;100944.19;5047656;28;45456;-70
2023/08/29 02:18:46;;;;;;;;;3.00;3.00;;;;;18.18;65.95;100948.06;5057262;28;45468;-70
2023/08/29 02:21:12;;;;;;;;;4.25;4.25;;;;;18.21;65.94;100961.38;5059065;28;45476;-70
2023/08/29 02:23:38;;;;;;;;;4.00;4.00;;;;;18.21;66.27;100958.69;5057543;28;46884;-70
2023/08/29 02:26:05;;;;;;;;;3.25;2.50;;;;;18.16;66.08;100955.41;5059069;28;45341;-70
2023/08/29 02:28:38;;;;;;;;;3.75;3.75;;;;;18.15;66.18;100957.19;5058145;28;45375;-70
2023/08/29 02:31:05;;;;;;;;;2.25;2.25;;;;;18.15;66.13;100962.59;5074441;28;45804;-70
2023/08/29 02:33:32;;;;;;;;;4.75;3.25;;;;;18.19;66.42;100968.69;5059119;28;45926;-70
2023/08/29 02:35:57;;;;;;;;;5.00;4.00;;;;;18.12;66.42;100953.81;5058618;28;45345;-70
2023/08/29 02:38:23;;;;;;;;;2.75;2.25;;;;;18.14;66.35;100963.59;5059307;28;45337;-70
2023/08/29 02:40:48;;;;;;;;;4.00;4.00;;;;;18.15;66.96;100959.91;5058588;28;56650;-70
2023/08/29 02:43:13;;;;;;;;;4.75;3.00;;;;;18.20;66.66;100966.88;5057537;28;51047;-70
2023/08/29 02:45:38;;;;;;;;;5.00;4.00;;;;;18.11;67.02;100958.38;5073288;28;51668;-70
2023/08/29 02:48:05;;;;;;;;;4.50;4.50;;;;;18.14;66.89;100960.88;5056039;28;54086;-70
2023/08/29 02:50:31;;;;;;;;;5.00;4.75;;;;;18.05;67.06;100936.25;5057575;28;45470;-70
2023/08/29 02:52:56;;;;;;;;;3.25;3.25;;;;;18.18;66.86;100958.00;5058077;28;45538;-70
2023/08/29 02:55:21;;;;;;;;;4.00;3.75;;;;;18.14;67.22;100951.88;5058770;28;45376;-70
2023/08/29 02:57:47;;;;;;;;;3.50;3.50;;;;;18.17;66.95;100956.25;5059131;28;45397;-70
2023/08/29 03:00:14;;;;;;;;;3.00;3.00;;;;;18.14;67.30;100957.28;5058230;28;45596;-70
2023/08/29 03:02:39;;;;;;;;;5.00;5.00;;;;;18.14;67.20;100962.69;5057433;28;45383;-70
2023/08/29 03:05:05;;;;;;;;;5.25;4.25;;;;;18.15;67.31;100956.34;5058518;28;45439;-70
2023/08/29 03:07:31;;;;;;;;;4.25;3.50;;;;;18.16;67.33;100952.69;5073855;28;45352;-70
2023/08/29 03:09:56;;;;;;;;;3.00;3.00;;;;;18.20;67.58;100951.53;5057717;28;45248;-70
2023/08/29 03:12:22;;;;;;;;;5.00;5.00;;;;;18.18;67.72;100941.78;5058413;28;45961;-70
2023/08/29 03:14:51;;;;;;;;;6.00;5.00;;;;;18.23;67.12;100945.94;5057233;28;45490;-70
2023/08/29 03:17:17;;;;;;;;;3.00;3.00;;;;;18.25;67.50;100949.41;5052843;28;45484;-70
2023/08/29 03:19:42;;;;;;;;;5.00;5.00;;;;;18.24;67.29;100946.81;5056434;28;53334;-70
2023/08/29 03:22:07;;;;;;;;;4.25;4.25;;;;;18.21;67.15;100939.78;5058639;28;45361;-70
2023/08/29 03:24:33;;;;;;;;;4.00;4.00;;;;;18.25;67.26;100938.59;5045630;28;48538;-70
2023/08/29 03:26:58;;;;;;;;;3.25;3.25;;;;;18.25;67.26;100937.75;5058292;28;53673;-70
2023/08/29 03:29:23;;;;;;;;;4.25;4.00;;;;;18.29;67.55;100944.69;5056813;28;51761;-70
2023/08/29 03:31:49;;;;;;;;;6.00;5.00;;;;;18.29;67.54;100947.38;5061599;28;45235;-70
2023/08/29 03:34:14;;;;;;;;;5.25;5.25;;;;;18.23;67.52;100934.28;5061605;28;45500;-70
2023/08/29 03:36:39;;;;;;;;;6.50;6.50;;;;;18.26;67.78;100937.66;5059276;28;56391;-70
2023/08/29 03:39:04;;;;;;;;;9.25;9.25;;;;;18.26;67.65;100934.94;5060195;28;45314;-70
2023/08/29 03:41:30;;;;;;;;;9.25;8.50;;;;;18.28;67.64;100927.63;5061649;28;45540;-70
2023/08/29 03:43:55;;;;;;;;;8.25;7.25;;;;;18.29;67.96;100923.97;5061632;28;45333;-70
2023/08/29 03:46:21;;;;;;;;;10.25;9.25;;;;;18.28;67.41;100929.44;5059912;28;51981;-70
2023/08/29 03:48:46;;;;;;;;;10.25;9.25;;;;;18.17;67.70;100915.72;5059192;28;45537;-70
2023/08/29 03:51:12;;;;;;;;;10.75;10.00;;;;;18.25;68.30;100927.78;5045125;28;53393;-70
2023/08/29 03:53:37;;;;;;;;;9.50;9.50;;;;;18.19;67.96;100924.59;5061095;28;55913;-70
2023/08/29 03:56:04;;;;;;;;;11.75;8.75;;;;;18.14;67.98;100925.75;5061761;28;45316;-70
2023/08/29 03:58:30;;;;;;;;;11.00;10.00;;;;;18.17;67.78;100929.25;5061479;28;45413;-70
2023/08/29 04:00:56;;;;;;;;;9.25;8.25;;;;;17.97;67.84;100907.00;5061183;28;45712;-70
2023/08/29 04:03:22;;;;;;;;;10.50;9.00;;;;;18.03;68.12;100913.88;5061250;28;45617;-70
2023/08/29 04:05:47;;;;;;;;;7.00;7.00;;;;;18.08;68.12;100933.38;5061683;28;45369;-70
2023/08/29 04:08:13;;;;;;;;;9.50;7.75;;;;;18.08;68.47;100925.28;5076735;28;45389;-70
2023/08/29 04:10:40;;;;;;;;;13.00;9.00;;;;;18.07;68.17;100928.94;5061380;28;45641;-70
2023/08/29 04:13:06;;;;;;;;;8.25;8.00;;;;;17.96;68.39;100911.53;5059874;28;45520;-70
2023/08/29 04:15:33;;;;;;;;;7.00;7.00;;;;;18.00;68.67;100919.47;5061336;28;45412;-70
2023/08/29 04:17:59;;;;;;;;;7.75;7.75;;;;;18.03;68.33;100927.38;5059845;28;45424;-70
2023/08/29 04:20:24;;;;;;;;;10.75;9.00;;;;;18.02;68.78;100921.09;5058531;28;47110;-70
2023/08/29 04:22:49;;;;;;;;;8.75;8.25;;;;;17.92;68.61;100898.31;5061006;28;45406;-70
2023/08/29 04:25:15;;;;;;;;;9.50;8.25;;;;;17.93;68.74;100908.16;5076921;28;45401;-70
2023/08/29 04:27:41;;;;;;;;;4.50;4.50;;;;;18.00;69.12;100914.94;5061032;28;45505;-70
2023/08/29 04:30:07;;;;;;;;;7.75;7.00;;;;;17.98;68.60;100924.97;5060985;28;45373;-70
2023/08/29 04:32:36;;;;;;;;;7.00;6.50;;;;;18.00;68.51;100924.88;5060813;28;45397;-70
2023/08/29 04:35:03;;;;;;;;;5.50;5.50;;;;;18.01;68.96;100918.47;5060788;28;45259;-70
2023/08/29 04:37:28;;;;;;;;;6.50;6.50;;;;;17.99;68.97;100906.91;5060847;28;45326;-70
2023/08/29 04:39:53;;;;;;;;;5.00;5.00;;;;;17.99;69.01;100915.88;5058722;28;55923;-70
2023/08/29 04:42:18;;;;;;;;;6.00;5.00;;;;;18.00;69.07;100908.66;5076384;27;45547;-70
2023/08/29 04:44:44;;;;;;;;;5.00;5.00;;;;;18.02;69.17;100913.00;5060586;28;52801;-70
2023/08/29 04:47:09;;;;;;;;;5.00;4.50;;;;;17.90;68.75;100892.16;5050173;28;45762;-70
2023/08/29 04:49:35;;;;;;;;;5.25;5.00;;;;;18.02;68.83;100921.09;5058809;28;46646;-70
2023/08/29 04:52:00;;;;;;;;;7.00;7.00;;;;;17.94;69.18;100907.19;5060616;28;45374;-70
2023/08/29 04:54:25;;;;;;;;;6.25;6.25;;;;;17.98;69.16;100919.56;5059446;28;45877;-70
2023/08/29 04:56:51;;;;;;;;;6.00;6.00;;;;;17.95;69.37;100911.63;5060547;28;45483;-70
2023/08/29 04:59:16;;;;;;;;;5.75;5.75;;;;;17.96;69.44;100924.19;5060573;28;45592;-70
2023/08/29 05:01:41;;;;;;;;;5.75;5.75;;;;;17.89;69.00;100909.28;5059851;28;57581;-70
2023/08/29 05:04:08;;;;;;;;;7.25;6.25;;;;;17.88;69.48;100913.84;5060434;28;45373;-70
2023/08/29 05:06:33;;;;;;;;;5.50;5.25;;;;;17.90;69.56;100919.16;5060444;28;45600;-70
2023/08/29 05:08:59;;;;;;;;;5.75;5.75;;;;;17.87;69.74;100922.88;5060298;28;45661;-70
2023/08/29 05:11:24;;;;;;;;;9.00;8.75;;;;;17.82;69.76;100910.59;5059967;28;49790;-70
2023/08/29 05:13:49;;;;;;;;;6.00;6.00;;;;;17.87;69.75;100911.22;5047091;28;46847;-70
2023/08/29 05:16:15;;;;;;;;;6.25;6.25;;;;;17.81;69.73;100907.03;5058524;28;57899;-70
2023/08/29 05:18:40;;;;;;;;;4.50;4.50;;;;;17.85;70.13;100913.97;5057543;28;52875;-70
2023/08/29 05:21:05;;;;;;;;;6.75;6.75;;;;;17.82;70.35;100916.00;5058792;28;57473;-70
2023/08/29 05:23:30;;;;;;;;;6.00;4.75;;;;;17.83;69.68;100920.47;5059873;28;50913;-70
2023/08/29 05:25:56;;;;;;;;;8.75;7.00;;;;;17.75;70.07;100916.34;5060167;28;45559;-70
2023/08/29 05:28:21;;;;;;;;;6.75;6.50;;;;;17.73;69.85;100918.28;5058815;28;48133;-70
2023/08/29 05:30:46;;;;;;;;;6.50;6.00;;;;;17.70;70.12;100912.22;5057981;28;45436;-70
2023/08/29 05:33:12;;;;;;;;;6.75;5.75;;;;;17.74;70.25;100913.75;5060053;28;45370;-70
2023/08/29 05:35:37;;;;;;;;;5.75;5.75;;;;;17.69;70.16;100908.66;5063382;28;45490;-70
2023/08/29 05:38:03;;;;;;;;;6.75;6.75;;;;;17.72;70.50;100915.69;5059971;28;45406;-70
2023/08/29 05:40:28;;;;;;;;;7.25;7.25;;;;;17.61;70.81;100897.44;5059916;28;45306;-70
2023/08/29 05:42:53;;;;;;;;;6.25;5.25;;;;;17.70;70.32;100912.22;5060194;28;45282;-70
2023/08/29 05:45:19;;;;;;;;;7.00;4.75;;;;;17.69;70.50;100914.06;5059703;28;45439;-70
2023/08/29 05:47:44;;;;;;;;;10.00;9.25;;;;;17.74;71.14;100916.44;5056954;28;45935;-70
2023/08/29 05:50:10;;;;;;;;;9.00;7.00;;;;;17.72;70.82;100913.84;5056706;28;55103;-70
2023/08/29 05:52:35;;;;;;;;;8.00;6.00;;;;;17.74;70.81;100917.34;5058851;28;48656;-70
2023/08/29 05:55:00;;;;;;;;;8.50;6.50;;;;;17.74;70.99;100905.66;5059577;28;45349;-70
2023/08/29 05:57:26;;;;;;;;;7.50;7.00;;;;;17.73;71.11;100910.19;5059697;28;45391;-70
2023/08/29 05:59:53;;;;;;;;;7.00;6.50;;;;;17.71;71.11;100912.13;5059321;28;45488;-70
2023/08/29 06:02:19;;;;;;;;;8.00;7.00;;;;;17.73;71.06;100910.19;5052806;28;45403;-70
2023/08/29 06:04:44;;;;;;;;;6.75;5.50;;;;;17.75;71.47;100916.34;5058257;28;45350;-70
2023/08/29 06:07:09;;;;;;;;;9.25;7.00;;;;;17.70;71.17;100902.28;5057082;28;54408;-70
2023/08/29 06:09:34;;;;;;;;;6.25;6.25;;;;;17.68;71.25;100906.91;5055324;28;45550;-69
2023/08/29 06:12:00;;;;;;;;;6.50;6.50;;;;;17.71;71.55;100906.72;5055599;28;45703;-71
2023/08/29 06:14:25;;;;;;;;;6.00;6.00;;;;;17.69;71.14;100911.34;5051964;28;45470;-70
2023/08/29 06:16:51;;;;;;;;;7.75;7.75;;;;;17.72;71.66;100910.28;5056870;28;46110;-71
2023/08/29 06:19:16;;;;;;;;;7.00;7.00;;;;;17.68;71.48;100903.34;5057164;28;53758;-70
2023/08/29 06:21:42;;;;;;;;;6.00;6.00;;;;;17.68;71.84;100908.75;5058510;28;45693;-79
2023/08/29 06:24:08;;;;;;;;;8.25;8.25;;;;;17.73;71.66;100920.13;5058885;28;45407;-79
2023/08/29 06:26:33;;;;;;;;;7.50;6.75;;;;;17.64;71.75;100902.66;5058372;28;46370;-79
2023/08/29 06:28:58;;;;;;;;;7.00;6.00;;;;;17.69;71.68;100908.66;5059336;28;45314;-79
2023/08/29 06:31:24;;;;;;;;;8.25;8.25;;;;;17.69;71.96;100905.06;5058378;28;45679;-79
2023/08/29 06:33:49;;;;;;;;;7.50;6.50;;;;;17.76;72.02;100920.81;5061970;28;45544;-79
2023/08/29 06:36:15;;;;;;;;;7.75;7.00;;;;;17.78;72.42;100918.88;5061125;28;46106;-78
2023/08/29 06:38:40;;;;;;;;;7.00;7.00;;;;;17.73;72.05;100914.72;5059043;28;45379;-79
2023/08/29 06:41:05;;;;;;;;;6.25;6.25;;;;;17.75;72.29;100915.50;5058652;28;45501;-79
2023/08/29 06:43:30;;;;;;;;;5.00;5.00;;;;;17.82;71.96;100919.56;5057834;28;45596;-79
2023/08/29 06:45:56;;;;;;;;;6.50;6.50;;;;;17.87;71.96;100924.72;5056454;28;46975;-79
2023/08/29 06:48:21;;;;;;;;;8.00;7.00;;;;;17.91;72.26;100915.50;5066755;28;45488;-79
2023/08/29 06:50:47;;;;;;;;;7.25;6.75;;;;;17.95;72.00;100927.84;5059199;28;46130;-79
2023/08/29 06:53:12;;;;;;;;;8.25;7.75;;;;;17.98;71.93;100924.09;5057970;28;56801;-79
2023/08/29 06:55:37;;;;;;;;;4.75;4.75;;;;;18.00;72.36;100923.03;5073403;28;47375;-79
2023/08/29 06:58:04;;;;;;;;;10.50;8.50;;;;;18.01;72.04;100927.47;5066534;28;45439;-79
2023/08/29 07:00:33;;;;;;;;;6.75;6.75;;;;;18.02;71.93;100929.19;5057421;28;45342;-79
2023/08/29 07:02:59;;;;;;;;;6.00;5.75;;;;;17.93;71.97;100913.56;5055317;28;45477;-80
2023/08/29 07:05:24;;;;;;;;;8.50;6.00;;;;;17.89;72.16;100903.91;5053378;28;46454;-77
2023/08/29 07:07:50;;;;;;;;;8.50;7.50;;;;;18.09;72.22;100933.28;5069547;28;45586;-79
2023/08/29 07:10:16;;;;;;;;;9.25;7.50;;;;;18.11;72.38;100936.75;5060529;28;45434;-78
2023/08/29 07:12:42;;;;;;;;;5.50;5.50;;;;;18.16;72.16;100941.88;5052286;28;45548;-76
2023/08/29 07:15:08;;;;;;;;;7.50;7.25;;;;;18.19;72.60;100933.56;5057043;28;46009;-78
2023/08/29 07:17:33;;;;;;;;;6.00;5.00;;;;;18.22;72.81;100943.34;5056314;28;46919;-79
2023/08/29 07:19:58;;;;;;;;;5.50;4.50;;;;;18.18;72.29;100933.69;5056059;28;46070;-79
2023/08/29 07:22:24;;;;;;;;;6.00;6.00;;;;;18.22;72.31;100936.09;5065789;28;45653;-80
2023/08/29 07:24:49;;;;;;;;;7.00;5.50;;;;;18.20;72.37;100926.34;5057563;28;45374;-79
2023/08/29 07:27:15;;;;;;;;;5.50;5.50;;;;;18.25;72.29;100940.44;5051645;28;45505;-79
2023/08/29 07:29:41;;;;;;;;;8.50;8.50;;;;;18.19;72.72;100922.75;5058372;28;45472;-79
2023/08/29 07:32:07;;;;;;;;;5.25;5.25;;;;;18.27;72.98;100927.69;5064637;28;45412;-79
2023/08/29 07:34:32;;;;;;;;;9.25;5.25;;;;;18.33;72.64;100939.00;5057274;28;45523;-79
2023/08/29 07:36:57;;;;;;;;;9.00;7.75;;;;;18.38;72.79;100946.84;5058715;28;45381;-79
2023/08/29 07:39:24;;;;;;;;;6.25;6.25;;;;;18.40;72.39;100944.91;5056566;28;45798;-79
2023/08/29 07:41:50;;;;;;;;;4.75;4.75;;;;;18.44;72.39;100943.75;5063366;27;45603;-79
2023/08/29 07:44:15;;;;;;;;;7.50;6.50;;;;;18.45;71.92;100933.81;5073116;27;47133;-79
2023/08/29 07:46:40;;;;;;;;;12.50;11.75;;;;;18.48;71.88;100933.63;5057738;28;45454;-79
2023/08/29 07:49:13;;;;;;;;;6.00;6.00;;;;;18.40;71.61;100925.13;5059175;28;45443;-79
2023/08/29 07:51:39;;;;;;;;;9.00;9.00;;;;;18.46;72.20;100936.41;5058711;28;45725;-79
2023/08/29 07:54:05;;;;;;;;;8.75;6.25;;;;;18.52;72.33;100944.13;5057840;28;45614;-79
2023/08/29 07:56:30;;;;;;;;;7.00;7.00;;;;;18.52;71.89;100937.84;5059869;28;45401;-79
2023/08/29 07:58:55;;;;;;;;;7.50;6.25;;;;;18.56;71.82;100938.53;5059401;28;45498;-79
2023/08/29 08:01:21;;;;;;;;;3.75;3.75;;;;;18.49;71.77;100921.81;5055715;28;45525;-79
2023/08/29 08:03:47;;;;;;;;;4.00;4.00;;;;;18.63;71.26;100929.94;5058266;28;46797;-79
2023/08/29 08:06:12;;;;;;;;;7.00;7.00;;;;;18.65;71.23;100921.75;5052871;28;45647;-79
2023/08/29 08:08:37;;;;;;;;;5.00;5.00;;;;;18.72;71.49;100936.59;5056083;28;45464;-79
2023/08/29 08:11:04;;;;;;;;;6.75;6.75;;;;;18.62;71.68;100916.53;5059911;28;45752;-79
2023/08/29 08:13:30;;;;;;;;;6.00;5.50;;;;;18.77;71.84;100934.47;5056292;28;46364;-79
2023/08/29 08:15:55;;;;;;;;;4.75;4.75;;;;;18.72;70.75;100911.41;5055962;28;45337;-79
2023/08/29 08:18:21;;;;;;;;;3.50;3.50;;;;;18.87;70.88;100924.81;5058282;28;45423;-79
2023/08/29 08:20:46;;;;;;;;;3.00;3.00;;;;;18.86;70.67;100920.41;5060799;28;45484;-80
2023/08/29 08:23:12;;;;;;;;;4.50;3.75;;;;;18.93;70.53;100919.97;5064974;28;45664;-80
2023/08/29 08:25:37;;;;;;;;;4.00;4.00;;;;;18.90;70.07;100914.81;5073948;27;45435;-79
2023/08/29 08:28:05;;;;;;;;;3.50;3.50;;;;;18.97;69.84;100917.00;5057388;28;45849;-80
2023/08/29 08:30:31;;;;;;;;;3.00;3.00;;;;;19.06;69.71;100924.53;5059493;28;45680;-80
2023/08/29 08:32:56;;;;;;;;;4.50;4.50;;;;;19.00;69.82;100913.22;5058893;28;45667;-80
2023/08/29 08:35:21;;;;;;;;;3.00;3.00;;;;;19.15;69.08;100933.88;5058274;28;45434;-79
2023/08/29 08:37:47;;;;;;;;;4.00;3.25;;;;;19.07;68.59;100904.59;5056715;28;45397;-80
2023/08/29 08:40:15;;;;;;;;;3.00;3.00;;;;;19.15;69.02;100920.34;5056507;28;45547;-80
2023/08/29 08:42:40;;;;;;;;;2.25;2.00;;;;;19.20;68.00;100925.47;5074088;27;48258;-80
2023/08/29 08:45:07;;;;;;;;;5.75;3.75;;;;;19.23;68.19;100928.81;5053322;28;45456;-79
2023/08/29 08:47:35;;;;;;;;;4.75;3.50;;;;;19.23;68.23;100909.03;5054513;28;45636;-80
2023/08/29 08:50:01;;;;;;;;;3.25;3.25;;;;;19.31;67.37;100916.63;5056514;28;46167;-79
2023/08/29 08:52:27;;;;;;;;;2.00;2.00;;;;;19.23;67.13;100904.47;5051107;28;48015;-77
2023/08/29 08:54:52;;;;;;;;;2.00;2.00;;;;;19.36;66.04;100922.59;5057407;28;45626;-80
2023/08/29 08:57:18;;;;;;;;;3.50;2.25;;;;;19.38;66.35;100921.53;5057804;28;45497;-80
2023/08/29 08:59:43;;;;;;;;;3.50;2.50;;;;;19.41;66.46;100924.03;5057920;28;45606;-79
2023/08/29 09:02:13;;;;;;;;;2.50;2.50;;;;;19.35;66.04;100913.59;5057299;28;45770;-78
2023/08/29 09:04:39;;;;;;;;;2.00;2.00;;;;;19.42;65.66;100912.22;5071970;27;46136;-78
2023/08/29 09:07:04;;;;;;;;;1.75;1.75;;;;;19.48;65.44;100921.78;5054500;28;45822;-78
2023/08/29 09:09:29;;;;;;;;;3.00;3.00;;;;;19.47;65.01;100911.06;5058854;28;45416;-79
2023/08/29 09:11:56;;;;;;;;;2.75;2.00;;;;;19.55;65.18;100911.41;5056246;28;47106;-79
2023/08/29 09:14:24;;;;;;;;;2.50;2.50;;;;;19.56;65.30;100910.41;5057412;28;45644;-79
2023/08/29 09:16:55;;;;;;;;;2.25;2.25;;;;;19.61;65.28;100909.16;5055498;28;45381;-79
2023/08/29 09:19:22;;;;;;;;;1.75;1.75;;;;;19.55;64.60;100887.91;5054022;28;45594;-79
2023/08/29 09:21:48;;;;;;;;;3.00;3.00;;;;;19.58;64.04;100892.25;5057520;28;45576;-79
2023/08/29 09:24:13;;;;;;;;;2.00;2.00;;;;;19.67;64.26;100909.72;5067254;27;45401;-80
2023/08/29 09:26:40;;;;;;;;;2.25;2.25;;;;;19.63;64.28;100899.09;5054165;28;45305;-79
2023/08/29 09:29:19;;;;;;;;;2.00;2.00;;;;;19.60;64.24;100890.31;5056522;28;45531;-80
2023/08/29 09:31:48;;;;;;;;;1.50;1.25;;;;;19.78;64.06;100912.59;5056858;28;46052;-80
2023/08/29 09:34:30;;;;;;;;;1.50;1.50;;;;;19.83;64.34;100902.31;5053600;27;45390;-79
2023/08/29 09:36:57;;;;;;;;;2.00;2.00;;;;;19.89;64.24;100907.28;5050908;28;45701;-80
2023/08/29 09:39:22;;;;;;;;;2.00;2.00;;;;;19.93;63.99;100892.56;5072678;27;45884;-80
2023/08/29 09:42:07;;;;;;;;;2.50;2.00;;;;;19.98;63.92;100895.81;5057777;28;45586;-79
2023/08/29 09:44:40;;;;;;;;;2.75;2.75;;;;;20.02;63.18;100887.50;5046761;28;45726;-80
2023/08/29 09:47:07;;;;;;;;;4.00;3.00;;;;;20.08;63.23;100889.75;5055020;28;45499;-79
2023/08/29 09:49:42;;;;;;;;;4.00;3.00;;;;;20.11;63.35;100886.81;5055581;28;45388;-79
2023/08/29 09:52:13;;;;;;;;;2.50;2.00;;;;;20.13;63.01;100893.88;5054064;28;45977;-80
2023/08/29 09:54:49;;;;;;;;;4.00;2.75;;;;;20.16;62.80;100899.09;5071767;28;46337;-80
2023/08/29 09:57:18;;;;;;;;;3.00;3.00;;;;;20.19;62.10;100889.88;5073291;28;45543;-79
2023/08/29 09:59:44;;;;;;;;;2.25;2.25;;;;;20.10;62.19;100872.41;5056838;28;46099;-80
2023/08/29 10:02:11;;;;;;;;;4.00;3.00;;;;;20.20;62.11;100880.78;5054770;28;45535;-79
2023/08/29 10:04:44;;;;;;;;;2.00;2.00;;;;;20.29;62.02;100890.94;5063591;28;45582;-80
2023/08/29 10:07:14;;;;;;;;;1.00;1.00;;;;;20.27;61.75;100873.06;5049849;28;45385;-68
2023/08/29 10:09:41;;;;;;;;;3.25;2.75;;;;;20.29;61.19;100871.97;5054698;28;45523;-68
2023/08/29 10:12:07;;;;;;;;;2.00;2.00;;;;;20.29;61.08;100868.41;5048811;28;45577;-68
2023/08/29 10:14:33;;;;;;;;;2.50;1.25;;;;;20.31;61.55;100859.19;5050101;28;45742;-68
2023/08/29 10:17:00;;;;;;;;;2.75;2.75;;;;;20.30;61.02;100862.88;5057919;28;45420;-68
2023/08/29 10:19:28;;;;;;;;;2.00;2.00;;;;;20.39;60.55;100876.75;5056809;28;45504;-68
2023/08/29 10:21:54;;;;;;;;;2.75;2.75;;;;;20.39;59.95;100884.88;5057038;28;45561;-68
2023/08/29 10:24:20;;;;;;;;;1.00;1.00;;;;;20.35;59.52;100868.84;5056734;28;45838;-68
2023/08/29 10:26:45;;;;;;;;;2.00;2.00;;;;;20.37;59.62;100874.16;5057866;28;45441;-68
2023/08/29 10:29:11;;;;;;;;;1.25;1.25;;;;;20.40;59.82;100867.63;5057362;28;45756;-68
2023/08/29 10:31:37;;;;;;;;;2.00;2.00;;;;;20.44;59.66;100867.31;5072889;28;47272;-68
2023/08/29 10:34:06;;;;;;;;;3.00;3.00;;;;;20.33;59.40;100840.09;5057239;28;45432;-68
2023/08/29 10:36:32;;;;;;;;;1.00;1.00;;;;;20.45;59.44;100860.91;5071649;28;45445;-68
2023/08/29 10:38:58;;;;;;;;;2.25;2.25;;;;;20.50;59.20;100863.28;5056638;28;45472;-68
2023/08/29 10:41:23;;;;;;;;;3.00;3.00;;;;;20.53;58.66;100865.75;5057939;28;45454;-68
2023/08/29 10:43:53;;;;;;;;;2.50;2.50;;;;;20.53;58.49;100863.03;5057398;28;45565;-68
2023/08/29 10:46:19;;;;;;;;;2.50;1.25;;;;;20.54;58.52;100851.25;5055903;28;45622;-68
2023/08/29 10:48:45;;;;;;;;;1.50;1.50;;;;;20.65;57.95;100851.38;5056652;28;45333;-68
2023/08/29 10:51:15;;;;;;;;;1.00;1.00;;;;;20.70;57.79;100848.31;5072874;28;47125;-68
2023/08/29 10:53:43;;;;;;;;;3.25;3.25;;;;;20.73;57.96;100843.53;5056781;28;45383;-68
2023/08/29 10:56:09;;;;;;;;;2.75;2.75;;;;;20.77;58.03;100846.03;5058060;28;45510;-68
2023/08/29 10:58:38;;;;;;;;;2.75;2.75;;;;;20.77;58.56;100836.03;5055671;28;45283;-68
2023/08/29 11:01:05;;;;;;;;;2.25;2.00;;;;;20.82;58.28;100841.13;5055327;28;47959;-68
2023/08/29 11:03:51;;;;;;;;;3.00;3.00;;;;;20.88;58.44;100848.78;5056936;28;45558;-68
2023/08/29 11:06:18;;;;;;;;;2.25;2.25;;;;;20.87;59.16;100849.78;5056627;28;45431;-68
2023/08/29 11:08:43;;;;;;;;;3.00;2.00;;;;;20.89;59.73;100855.97;5071558;27;45706;-68
2023/08/29 11:11:22;;;;;;;;;2.00;2.00;;;;;20.89;61.08;100856.81;5057587;28;45497;-68
2023/08/29 11:13:55;;;;;;;;;6.00;3.50;;;;;20.87;61.71;100852.50;5051403;28;46800;-67
2023/08/29 11:16:20;;;;;;;;;2.00;2.00;;;;;20.87;62.27;100847.06;5047281;28;45636;-67
2023/08/29 11:18:47;;;;;;;;;4.00;4.00;;;;;20.83;62.68;100851.88;5053340;28;45494;-67
2023/08/29 11:21:16;;;;;;;;;3.75;3.75;;;;;20.84;62.70;100850.00;5056375;28;45587;-67